createdAt,value
2022-09-18T00:01:39.132Z,99.90
2022-09-18T00:04:28.328Z,99.90
2022-09-18T00:07:08.307Z,99.90
2022-09-18T00:13:05.268Z,99.90
2022-09-18T00:15:42.041Z,99.90
2022-09-18T00:18:42.792Z,99.90
2022-09-18T00:21:38.287Z,99.90
2022-09-18T00:27:34.184Z,99.90
2022-09-18T00:30:09.274Z,99.90
2022-09-18T00:32:42.716Z,99.90
2022-09-18T00:35:44.964Z,99.90
2022-09-18T00:38:55.066Z,99.90
2022-09-18T00:41:28.863Z,99.90
2022-09-18T00:44:47.311Z,99.90
2022-09-18T00:48:00.590Z,99.90
2022-09-18T00:51:06.339Z,99.90
2022-09-18T00:59:58.819Z,99.90
2022-09-18T01:02:36.039Z,99.90
2022-09-18T01:08:58.643Z,99.90
2022-09-18T01:12:06.298Z,99.90
2022-09-18T01:15:45.698Z,99.90
2022-09-18T01:18:47.098Z,99.90
2022-09-18T01:22:11.175Z,99.90
2022-09-18T01:25:12.430Z,99.90
2022-09-18T01:28:15.881Z,99.90
2022-09-18T01:30:56.489Z,99.90
2022-09-18T01:33:52.252Z,99.90
2022-09-18T01:36:59.891Z,99.90
2022-09-18T01:39:41.225Z,99.90
2022-09-18T01:42:49.707Z,99.90
2022-09-18T01:45:41.549Z,99.90
2022-09-18T01:48:44.842Z,99.90
2022-09-18T01:51:28.685Z,99.90
2022-09-18T01:54:17.450Z,99.90
2022-09-18T01:59:52.225Z,99.90
2022-09-18T02:03:18.445Z,99.90
2022-09-18T02:09:35.896Z,99.90
2022-09-18T02:12:29.894Z,99.90
2022-09-18T02:15:24.952Z,99.90
2022-09-18T02:18:45.936Z,99.90
2022-09-18T02:22:04.336Z,99.90
2022-09-18T02:25:13.380Z,99.90
2022-09-18T02:28:13.412Z,99.90
2022-09-18T02:31:32.179Z,99.90
2022-09-18T02:35:01.488Z,99.90
2022-09-18T02:38:03.103Z,99.90
2022-09-18T02:41:11.789Z,99.90
2022-09-18T02:44:16.220Z,99.90
2022-09-18T02:51:06.447Z,99.90
2022-09-18T02:54:23.103Z,99.90
2022-09-18T03:01:03.500Z,99.90
2022-09-18T03:04:17.756Z,99.90
2022-09-18T03:07:37.303Z,99.90
2022-09-18T03:10:56.339Z,99.90
2022-09-18T03:13:30.839Z,99.90
2022-09-18T03:16:12.056Z,99.90
2022-09-18T03:19:15.979Z,99.90
2022-09-18T03:21:57.735Z,99.90
2022-09-18T03:25:04.722Z,99.90
2022-09-18T03:30:53.139Z,99.90
2022-09-18T03:33:27.577Z,99.90
2022-09-18T03:36:24.071Z,99.90
2022-09-18T03:39:00.619Z,99.90
2022-09-18T03:42:20.689Z,99.90
2022-09-18T03:45:19.872Z,99.90
2022-09-18T03:47:52.072Z,99.90
2022-09-18T03:50:29.494Z,99.90
2022-09-18T03:56:40.548Z,99.90
2022-09-18T03:59:40.818Z,99.90
2022-09-18T04:03:23.373Z,99.90
2022-09-18T04:06:46.154Z,99.90
2022-09-18T04:10:10.933Z,99.90
2022-09-18T04:12:49.389Z,99.90
2022-09-18T04:15:35.058Z,99.90
2022-09-18T04:18:25.657Z,99.90
2022-09-18T04:21:00.137Z,99.90
2022-09-18T04:30:21.462Z,99.90
2022-09-18T04:33:10.970Z,99.90
2022-09-18T04:36:03.034Z,99.90
2022-09-18T04:38:52.636Z,99.90
2022-09-18T04:44:29.253Z,99.90
2022-09-18T04:47:30.540Z,99.90
2022-09-18T04:53:54.286Z,99.90
2022-09-18T04:56:37.376Z,99.90
2022-09-18T04:59:35.257Z,99.90
2022-09-18T05:02:13.695Z,99.90
2022-09-18T05:05:01.808Z,99.90
2022-09-18T05:11:14.676Z,99.90
2022-09-18T05:14:08.196Z,99.90
2022-09-18T05:20:12.176Z,99.90
2022-09-18T05:23:23.520Z,99.90
2022-09-18T05:26:44.544Z,99.90
2022-09-18T05:30:11.116Z,99.90
2022-09-18T05:33:21.676Z,99.90
2022-09-18T05:36:44.123Z,99.90
2022-09-18T05:43:02.520Z,99.90
2022-09-18T05:49:50.634Z,99.90
2022-09-18T05:52:50.469Z,99.90
2022-09-18T05:55:34.234Z,99.90
2022-09-18T05:58:44.495Z,99.90
2022-09-18T06:01:51.663Z,99.90
2022-09-18T06:05:53.399Z,99.90
2022-09-18T06:08:55.716Z,99.90
2022-09-18T06:11:47.487Z,99.90
2022-09-18T06:14:58.883Z,99.90
2022-09-18T06:18:06.947Z,99.90
2022-09-18T06:21:14.152Z,99.90
2022-09-18T06:24:14.019Z,99.90
2022-09-18T06:27:28.594Z,99.90
2022-09-18T06:30:25.396Z,99.90
2022-09-18T06:33:22.932Z,99.90
2022-09-18T06:36:29.978Z,99.90
2022-09-18T06:39:49.995Z,99.90
2022-09-18T06:43:14.850Z,99.90
2022-09-18T06:50:05.846Z,99.90
2022-09-18T06:52:50.859Z,99.90
2022-09-18T06:55:22.609Z,99.90
2022-09-18T07:01:41.281Z,99.90
2022-09-18T07:04:40.999Z,99.90
2022-09-18T07:07:13.697Z,99.90
2022-09-18T07:09:44.787Z,99.90
2022-09-18T07:12:23.954Z,99.90
2022-09-18T07:14:55.810Z,99.90
2022-09-18T07:17:34.689Z,99.90
2022-09-18T07:20:07.278Z,99.90
2022-09-18T07:22:46.438Z,99.90
2022-09-18T07:25:16.917Z,99.90
2022-09-18T07:27:46.901Z,99.90
2022-09-18T07:30:18.492Z,99.90
2022-09-18T07:32:49.921Z,99.90
2022-09-18T07:38:30.552Z,99.90
2022-09-18T07:41:03.441Z,99.90
2022-09-18T07:43:43.519Z,99.90
2022-09-18T07:46:12.857Z,99.90
2022-09-18T07:48:43.204Z,99.90
2022-09-18T07:51:57.289Z,99.90
2022-09-18T07:54:30.761Z,99.90
2022-09-18T07:57:33.196Z,99.90
2022-09-18T08:00:41.264Z,99.90
2022-09-18T08:03:52.102Z,99.90
2022-09-18T08:10:45.288Z,99.90
2022-09-18T08:16:55.227Z,99.90
2022-09-18T08:20:07.180Z,99.90
2022-09-18T08:26:49.511Z,99.90
2022-09-18T08:29:36.868Z,99.90
2022-09-18T08:32:36.999Z,99.90
2022-09-18T08:35:25.444Z,99.90
2022-09-18T08:38:10.871Z,99.90
2022-09-18T08:41:53.564Z,99.90
2022-09-18T08:44:32.971Z,99.90
2022-09-18T08:47:36.735Z,99.90
2022-09-18T08:50:35.020Z,99.90
2022-09-18T08:53:46.381Z,99.90
2022-09-18T08:56:41.340Z,99.90
2022-09-18T08:59:42.897Z,99.90
2022-09-18T09:02:25.370Z,99.90
2022-09-18T09:05:20.047Z,99.90
2022-09-18T09:08:32.320Z,99.90
2022-09-18T09:11:14.568Z,99.90
2022-09-18T09:14:56.535Z,99.90
2022-09-18T09:17:43.890Z,99.90
2022-09-18T09:20:30.876Z,99.90
2022-09-18T09:23:08.963Z,99.90
2022-09-18T09:25:48.472Z,99.90
2022-09-18T09:28:46.315Z,99.90
2022-09-18T09:31:47.279Z,99.90
2022-09-18T09:34:59.574Z,99.90
2022-09-18T09:37:46.200Z,99.90
2022-09-18T09:40:25.786Z,99.90
2022-09-18T09:43:02.165Z,99.90
2022-09-18T09:45:37.361Z,99.90
2022-09-18T09:48:17.309Z,99.90
2022-09-18T09:50:57.302Z,99.90
2022-09-18T09:53:29.236Z,99.90
2022-09-18T09:56:08.046Z,99.90
2022-09-18T09:58:47.250Z,99.90
2022-09-18T10:01:25.797Z,99.90
2022-09-18T10:04:18.489Z,99.90
2022-09-18T10:07:15.851Z,99.90
2022-09-18T10:09:55.922Z,99.90
2022-09-18T10:12:33.115Z,99.90
2022-09-18T10:15:19.754Z,99.90
2022-09-18T10:17:52.656Z,99.90
2022-09-18T10:20:29.026Z,99.90
2022-09-18T10:23:10.658Z,99.90
2022-09-18T10:25:46.129Z,99.90
2022-09-18T10:28:16.754Z,99.90
2022-09-18T10:31:01.026Z,99.90
2022-09-18T10:33:40.869Z,99.90
2022-09-18T10:36:26.409Z,99.90
2022-09-18T10:39:05.560Z,99.90
2022-09-18T10:41:43.972Z,99.90
2022-09-18T10:44:29.205Z,99.90
2022-09-18T10:47:12.172Z,99.90
2022-09-18T10:49:54.485Z,99.90
2022-09-18T10:52:34.329Z,99.90
2022-09-18T10:55:26.195Z,99.90
2022-09-18T10:58:22.837Z,99.90
2022-09-18T11:04:37.072Z,99.90
2022-09-18T11:07:09.855Z,99.90
2022-09-18T11:09:45.399Z,99.90
2022-09-18T11:12:21.588Z,99.90
2022-09-18T11:14:58.131Z,99.90
2022-09-18T11:17:33.880Z,99.90
2022-09-18T11:20:09.625Z,99.90
2022-09-18T11:23:50.512Z,99.90
2022-09-18T11:26:34.948Z,99.90
2022-09-18T11:29:23.444Z,99.90
2022-09-18T11:32:01.593Z,99.90
2022-09-18T11:34:37.353Z,99.90
2022-09-18T11:37:25.699Z,99.90
2022-09-18T11:40:06.260Z,99.90
2022-09-18T11:42:45.812Z,99.90
2022-09-18T11:45:51.026Z,99.90
2022-09-18T11:48:46.174Z,99.90
2022-09-18T11:51:50.787Z,99.90
2022-09-18T11:55:17.474Z,99.90
2022-09-18T11:59:02.282Z,99.90
2022-09-18T12:02:12.552Z,99.90
2022-09-18T12:08:21.569Z,99.90
2022-09-18T12:11:21.846Z,99.90
2022-09-18T12:14:21.484Z,99.90
2022-09-18T12:17:32.165Z,99.90
2022-09-18T12:20:16.698Z,99.90
2022-09-18T12:23:04.963Z,99.90
2022-09-18T12:26:00.571Z,99.90
2022-09-18T12:29:11.212Z,99.90
2022-09-18T12:31:55.763Z,99.90
2022-09-18T12:34:36.635Z,99.90
2022-09-18T12:37:20.849Z,99.90
2022-09-18T12:40:32.796Z,99.90
2022-09-18T12:43:38.124Z,99.90
2022-09-18T12:46:44.918Z,99.90
2022-09-18T12:49:42.036Z,99.90
2022-09-18T12:52:29.448Z,99.90
2022-09-18T12:56:07.436Z,99.90
2022-09-18T13:03:06.302Z,99.90
2022-09-18T13:05:42.201Z,99.90
2022-09-18T13:09:22.699Z,99.90
2022-09-18T13:15:50.186Z,99.90
2022-09-18T13:19:11.019Z,99.90
2022-09-18T13:22:16.636Z,99.90
2022-09-18T13:25:37.069Z,99.90
2022-09-18T13:28:32.223Z,99.90
2022-09-18T13:31:58.297Z,99.90
2022-09-18T13:34:53.616Z,99.90
2022-09-18T13:41:15.474Z,92.90
2022-09-18T13:44:32.387Z,92.50
2022-09-18T13:47:43.707Z,93.20
2022-09-18T13:50:39.343Z,94.70
2022-09-18T13:53:50.458Z,97.40
2022-09-18T13:57:03.220Z,98.20
2022-09-18T14:03:58.064Z,99.90
2022-09-18T14:07:17.967Z,99.50
2022-09-18T14:10:39.123Z,95.20
2022-09-18T14:17:58.998Z,81.70
2022-09-18T14:21:01.454Z,80.40
2022-09-18T14:27:43.611Z,80.30
2022-09-18T14:30:35.575Z,76.10
2022-09-18T14:33:49.855Z,77.80
2022-09-18T14:37:10.427Z,76.50
2022-09-18T14:43:33.122Z,79.50
2022-09-18T14:46:10.748Z,83.70
2022-09-18T14:48:45.296Z,87.90
2022-09-18T14:51:23.495Z,91.70
2022-09-18T14:53:56.585Z,92.90
2022-09-18T15:06:20.814Z,81.40
2022-09-18T15:12:48.061Z,90.20
2022-09-18T15:15:44.770Z,90.70
2022-09-18T15:18:21.393Z,87.80
2022-09-18T15:20:55.648Z,88.30
2022-09-18T15:23:33.920Z,88.00
2022-09-18T15:26:08.331Z,90.80
2022-09-18T15:28:51.708Z,92.70
2022-09-18T15:31:25.975Z,94.30
2022-09-18T15:34:16.513Z,94.30
2022-09-18T15:36:46.628Z,93.20
2022-09-18T15:39:35.590Z,93.20
2022-09-18T15:42:23.335Z,93.80
2022-09-18T15:45:27.515Z,94.40
2022-09-18T15:48:01.313Z,95.40
2022-09-18T15:50:51.367Z,96.90
2022-09-18T15:53:27.200Z,98.20
2022-09-18T15:56:03.545Z,98.60
2022-09-18T15:58:46.100Z,99.70
2022-09-18T16:01:25.802Z,99.90
2022-09-18T16:04:18.440Z,99.90
2022-09-18T16:06:58.716Z,99.90
2022-09-18T16:09:36.485Z,99.90
2022-09-18T16:12:37.690Z,99.90
2022-09-18T16:15:22.014Z,99.90
2022-09-18T16:17:59.483Z,99.90
2022-09-18T16:20:35.814Z,99.90
2022-09-18T16:23:20.099Z,99.90
2022-09-18T16:26:08.374Z,99.90
2022-09-18T16:28:42.545Z,99.90
2022-09-18T16:31:13.581Z,99.90
2022-09-18T16:33:56.095Z,99.90
2022-09-18T16:36:32.306Z,99.90
2022-09-18T16:39:04.105Z,99.90
2022-09-18T16:41:34.765Z,99.90
2022-09-18T16:44:05.152Z,99.90
2022-09-18T16:46:42.608Z,99.90
2022-09-18T16:49:16.613Z,99.90
2022-09-18T16:51:46.209Z,99.90
2022-09-18T16:54:15.724Z,99.90
2022-09-18T16:56:49.640Z,99.90
2022-09-18T16:59:19.776Z,99.90
2022-09-18T17:02:03.445Z,99.90
2022-09-18T17:04:36.018Z,99.90
2022-09-18T17:07:07.149Z,99.90
2022-09-18T17:09:38.984Z,99.90
2022-09-18T17:12:08.940Z,99.90
2022-09-18T17:14:39.164Z,99.90
2022-09-18T17:17:09.083Z,99.90
2022-09-18T17:19:41.350Z,99.90
2022-09-18T17:22:11.302Z,99.90
2022-09-18T17:24:41.008Z,99.90
2022-09-18T17:27:10.887Z,99.90
2022-09-18T17:29:40.313Z,99.90
2022-09-18T17:32:09.723Z,99.90
2022-09-18T17:34:40.863Z,99.90
2022-09-18T17:37:11.660Z,99.90
2022-09-18T17:39:41.511Z,99.90
2022-09-18T17:42:10.531Z,99.90
2022-09-18T17:44:39.792Z,99.90
2022-09-18T17:47:10.488Z,99.90
2022-09-18T17:49:42.930Z,99.90
2022-09-18T17:52:12.177Z,99.90
2022-09-18T17:54:42.443Z,99.90
2022-09-18T17:57:13.943Z,99.90
2022-09-18T17:59:48.662Z,99.90
2022-09-18T18:02:18.133Z,99.90
2022-09-18T18:04:53.791Z,99.90
2022-09-18T18:07:23.025Z,99.90
2022-09-18T18:09:52.696Z,99.90
2022-09-18T18:12:22.463Z,99.90
2022-09-18T18:14:52.056Z,99.90
2022-09-18T18:17:23.254Z,99.90
2022-09-18T18:19:57.587Z,99.90
2022-09-18T18:22:43.577Z,99.90
2022-09-18T18:25:21.406Z,99.90
2022-09-18T18:31:05.864Z,99.90
2022-09-18T18:33:41.029Z,99.90
2022-09-18T18:39:30.102Z,99.90
2022-09-18T18:42:07.440Z,99.90
2022-09-18T18:44:59.673Z,99.90
2022-09-18T18:47:59.510Z,99.90
2022-09-18T18:50:36.606Z,99.90
2022-09-18T18:53:10.014Z,99.90
2022-09-18T18:55:39.621Z,99.90
2022-09-18T18:58:15.046Z,99.90
2022-09-18T19:00:46.952Z,99.90
2022-09-18T19:03:19.463Z,99.90
2022-09-18T19:05:50.122Z,99.90
2022-09-18T19:08:21.827Z,99.90
2022-09-18T19:10:59.049Z,99.90
2022-09-18T19:13:28.713Z,99.90
2022-09-18T19:15:59.122Z,99.90
2022-09-18T19:18:28.785Z,99.90
2022-09-18T19:21:03.014Z,99.90
2022-09-18T19:23:37.971Z,99.90
2022-09-18T19:26:12.146Z,99.90
2022-09-18T19:28:42.406Z,99.90
2022-09-18T19:31:15.232Z,99.90
2022-09-18T19:33:51.344Z,99.90
2022-09-18T19:36:22.288Z,99.90
2022-09-18T19:39:12.072Z,99.90
2022-09-18T19:41:54.324Z,99.90
2022-09-18T19:44:31.944Z,99.90
2022-09-18T19:47:10.088Z,99.90
2022-09-18T19:49:43.106Z,99.90
2022-09-18T19:52:33.123Z,99.90
2022-09-18T19:55:25.172Z,99.90
2022-09-18T19:58:01.749Z,99.90
2022-09-18T20:00:32.013Z,99.90
2022-09-18T20:03:03.539Z,99.90
2022-09-18T20:05:38.184Z,99.90
2022-09-18T20:08:10.314Z,99.90
2022-09-18T20:11:01.833Z,99.90
2022-09-18T20:14:07.295Z,99.90
2022-09-18T20:16:53.961Z,99.90
2022-09-18T20:19:29.706Z,99.90
2022-09-18T20:22:07.855Z,99.90
2022-09-18T20:24:58.845Z,99.90
2022-09-18T20:28:00.128Z,99.90
2022-09-18T20:30:33.458Z,99.90
2022-09-18T20:33:04.796Z,99.90
2022-09-18T20:35:53.257Z,99.90
2022-09-18T20:38:25.910Z,99.90
2022-09-18T20:41:17.738Z,99.90
2022-09-18T20:43:56.517Z,99.90
2022-09-18T20:46:50.010Z,99.90
2022-09-18T20:49:22.634Z,99.90
2022-09-18T20:51:58.706Z,99.90
2022-09-18T20:54:46.085Z,99.90
2022-09-18T20:57:19.885Z,99.90
2022-09-18T21:00:22.433Z,99.90
2022-09-18T21:02:54.814Z,99.90
2022-09-18T21:05:39.946Z,99.90
2022-09-18T21:08:22.082Z,99.90
2022-09-18T21:11:00.259Z,99.90
2022-09-18T21:13:32.717Z,99.90
2022-09-18T21:16:16.368Z,99.90
2022-09-18T21:18:55.742Z,99.90
2022-09-18T21:21:27.470Z,99.90
2022-09-18T21:24:13.482Z,99.90
2022-09-18T21:26:48.523Z,99.90
2022-09-18T21:29:24.471Z,99.90
2022-09-18T21:32:26.658Z,99.90
2022-09-18T21:35:07.143Z,99.90
2022-09-18T21:38:05.598Z,99.90
2022-09-18T21:41:13.806Z,99.90
2022-09-18T21:43:49.848Z,99.90
2022-09-18T21:46:42.575Z,99.90
2022-09-18T21:52:05.393Z,99.90
2022-09-18T21:55:04.727Z,99.90
2022-09-18T21:57:41.419Z,99.90
2022-09-18T22:00:14.706Z,99.90
2022-09-18T22:02:47.466Z,99.90
2022-09-18T22:05:19.236Z,99.90
2022-09-18T22:07:51.211Z,99.90
2022-09-18T22:10:23.186Z,99.90
2022-09-18T22:12:54.739Z,99.90
2022-09-18T22:15:25.391Z,99.90
2022-09-18T22:17:57.067Z,99.90
2022-09-18T22:20:28.927Z,99.90
2022-09-18T22:22:58.687Z,99.90
2022-09-18T22:25:29.012Z,99.90
2022-09-18T22:28:00.472Z,99.90
2022-09-18T22:30:35.411Z,99.90
2022-09-18T22:33:06.328Z,99.90
2022-09-18T22:35:50.023Z,99.90
2022-09-18T22:38:23.636Z,99.90
2022-09-18T22:40:55.083Z,99.90
2022-09-18T22:43:26.395Z,99.90
2022-09-18T22:46:02.455Z,99.90
2022-09-18T22:53:27.431Z,99.90
2022-09-18T22:56:29.113Z,99.90
2022-09-18T22:59:11.999Z,99.90
2022-09-18T23:01:48.446Z,99.90
2022-09-18T23:04:54.648Z,99.90
2022-09-18T23:07:56.635Z,99.90
2022-09-18T23:10:46.715Z,99.90
2022-09-18T23:16:44.743Z,99.90
2022-09-18T23:19:25.011Z,99.90
2022-09-18T23:21:59.629Z,99.90
2022-09-18T23:24:38.200Z,99.90
2022-09-18T23:27:12.483Z,99.90
2022-09-18T23:29:51.431Z,99.90
2022-09-18T23:32:29.262Z,99.90
2022-09-18T23:35:16.295Z,99.90
2022-09-18T23:37:48.450Z,99.90
2022-09-18T23:40:25.315Z,99.90
2022-09-18T23:43:05.978Z,99.90
2022-09-18T23:45:49.170Z,99.90
2022-09-18T23:48:23.386Z,99.90
2022-09-18T23:50:56.456Z,99.90
2022-09-18T23:53:38.400Z,99.90
2022-09-18T23:56:12.184Z,99.90
